sensor_id;sensor_type;location;lat;lon;timestamp;temperature;humidity
24814;DHT22;12904;50.088;11.414;2024-02-23T00:02:17;9.40;99.90
24814;DHT22;12904;50.088;11.414;2024-02-23T00:04:43;9.40;99.90
24814;DHT22;12904;50.088;11.414;2024-02-23T00:07:10;9.40;99.90
24814;DHT22;12904;50.088;11.414;2024-02-23T00:09:36;9.30;99.90
24814;DHT22;12904;50.088;11.414;2024-02-23T00:12:02;9.20;99.90
24814;DHT22;12904;50.088;11.414;2024-02-23T00:14:28;9.20;99.90
24814;DHT22;12904;50.088;11.414;2024-02-23T00:16:53;9.20;99.90
24814;DHT22;12904;50.088;11.414;2024-02-23T00:19:19;9.20;99.90
24814;DHT22;12904;50.088;11.414;2024-02-23T00:21:45;9.20;99.90
24814;DHT22;12904;50.088;11.414;2024-02-23T00:24:18;9.20;99.90
24814;DHT22;12904;50.088;11.414;2024-02-23T00:26:46;9.10;99.90
24814;DHT22;12904;50.088;11.414;2024-02-23T00:29:12;9.10;99.90
24814;DHT22;12904;50.088;11.414;2024-02-23T00:31:38;9.10;99.90
24814;DHT22;12904;50.088;11.414;2024-02-23T00:34:06;9.10;99.90
24814;DHT22;12904;50.088;11.414;2024-02-23T00:36:39;9.10;99.90
24814;DHT22;12904;50.088;11.414;2024-02-23T00:39:05;9.10;99.90
24814;DHT22;12904;50.088;11.414;2024-02-23T00:41:33;9.10;99.90
24814;DHT22;12904;50.088;11.414;2024-02-23T00:43:58;9.10;99.90
24814;DHT22;12904;50.088;11.414;2024-02-23T00:46:24;9.10;99.90
24814;DHT22;12904;50.088;11.414;2024-02-23T00:48:50;9.10;99.90
24814;DHT22;12904;50.088;11.414;2024-02-23T00:51:15;9.10;99.90
24814;DHT22;12904;50.088;11.414;2024-02-23T00:53:41;9.00;99.90
24814;DHT22;12904;50.088;11.414;2024-02-23T00:56:07;9.00;99.90
24814;DHT22;12904;50.088;11.414;2024-02-23T00:58:32;9.00;99.90
24814;DHT22;12904;50.088;11.414;2024-02-23T01:00:59;9.00;99.90
24814;DHT22;12904;50.088;11.414;2024-02-23T01:03:24;9.00;99.90
24814;DHT22;12904;50.088;11.414;2024-02-23T01:05:50;9.00;99.90
24814;DHT22;12904;50.088;11.414;2024-02-23T01:08:16;9.00;99.90
24814;DHT22;12904;50.088;11.414;2024-02-23T01:10:44;9.00;99.90
24814;DHT22;12904;50.088;11.414;2024-02-23T01:13:10;8.90;99.90
24814;DHT22;12904;50.088;11.414;2024-02-23T01:15:36;8.90;99.90
24814;DHT22;12904;50.088;11.414;2024-02-23T01:18:01;8.90;99.90
24814;DHT22;12904;50.088;11.414;2024-02-23T01:20:27;8.90;99.90
24814;DHT22;12904;50.088;11.414;2024-02-23T01:22:53;8.80;99.90
24814;DHT22;12904;50.088;11.414;2024-02-23T01:25:18;8.80;99.90
24814;DHT22;12904;50.088;11.414;2024-02-23T01:27:44;8.80;99.90
24814;DHT22;12904;50.088;11.414;2024-02-23T01:30:11;8.80;99.90
24814;DHT22;12904;50.088;11.414;2024-02-23T01:32:36;8.80;99.90
24814;DHT22;12904;50.088;11.414;2024-02-23T01:35:05;8.80;99.90
24814;DHT22;12904;50.088;11.414;2024-02-23T01:37:31;8.70;99.90
24814;DHT22;12904;50.088;11.414;2024-02-23T01:39:57;8.70;99.90
24814;DHT22;12904;50.088;11.414;2024-02-23T01:42:22;8.60;99.90
24814;DHT22;12904;50.088;11.414;2024-02-23T01:44:49;8.50;99.90
24814;DHT22;12904;50.088;11.414;2024-02-23T01:47:15;8.50;99.90
24814;DHT22;12904;50.088;11.414;2024-02-23T01:49:41;8.50;99.90
24814;DHT22;12904;50.088;11.414;2024-02-23T01:52:07;8.50;99.90
24814;DHT22;12904;50.088;11.414;2024-02-23T01:54:33;8.40;99.90
24814;DHT22;12904;50.088;11.414;2024-02-23T01:56:59;8.40;99.90
24814;DHT22;12904;50.088;11.414;2024-02-23T01:59:26;8.30;99.90
24814;DHT22;12904;50.088;11.414;2024-02-23T02:01:52;8.30;99.90
24814;DHT22;12904;50.088;11.414;2024-02-23T02:04:17;8.20;99.90
24814;DHT22;12904;50.088;11.414;2024-02-23T02:06:45;8.20;99.90
24814;DHT22;12904;50.088;11.414;2024-02-23T02:09:12;8.20;99.90
24814;DHT22;12904;50.088;11.414;2024-02-23T02:11:47;8.10;99.90
24814;DHT22;12904;50.088;11.414;2024-02-23T02:14:13;8.10;99.90
24814;DHT22;12904;50.088;11.414;2024-02-23T02:16:39;8.00;99.90
24814;DHT22;12904;50.088;11.414;2024-02-23T02:19:05;8.00;99.90
24814;DHT22;12904;50.088;11.414;2024-02-23T02:21:34;8.00;99.90
24814;DHT22;12904;50.088;11.414;2024-02-23T02:23:59;7.90;99.90
24814;DHT22;12904;50.088;11.414;2024-02-23T02:26:25;7.90;99.90
24814;DHT22;12904;50.088;11.414;2024-02-23T02:28:51;7.80;99.90
24814;DHT22;12904;50.088;11.414;2024-02-23T02:31:18;7.80;99.90
24814;DHT22;12904;50.088;11.414;2024-02-23T02:33:44;7.80;99.90
24814;DHT22;12904;50.088;11.414;2024-02-23T02:36:09;7.80;99.90
24814;DHT22;12904;50.088;11.414;2024-02-23T02:38:37;7.70;99.90
24814;DHT22;12904;50.088;11.414;2024-02-23T02:41:02;7.70;99.90
24814;DHT22;12904;50.088;11.414;2024-02-23T02:43:28;7.70;99.90
24814;DHT22;12904;50.088;11.414;2024-02-23T02:45:54;7.70;99.90
24814;DHT22;12904;50.088;11.414;2024-02-23T02:48:19;7.70;99.90
24814;DHT22;12904;50.088;11.414;2024-02-23T02:50:45;7.60;99.90
24814;DHT22;12904;50.088;11.414;2024-02-23T02:53:11;7.60;99.90
24814;DHT22;12904;50.088;11.414;2024-02-23T02:55:41;7.50;99.90
24814;DHT22;12904;50.088;11.414;2024-02-23T02:58:07;7.50;99.90
24814;DHT22;12904;50.088;11.414;2024-02-23T03:00:33;7.40;99.90
24814;DHT22;12904;50.088;11.414;2024-02-23T03:02:59;7.40;99.90
24814;DHT22;12904;50.088;11.414;2024-02-23T03:05:24;7.40;99.90
24814;DHT22;12904;50.088;11.414;2024-02-23T03:07:50;7.40;99.90
24814;DHT22;12904;50.088;11.414;2024-02-23T03:10:15;7.40;99.90
24814;DHT22;12904;50.088;11.414;2024-02-23T03:12:41;7.40;99.90
24814;DHT22;12904;50.088;11.414;2024-02-23T03:15:07;7.30;99.90
24814;DHT22;12904;50.088;11.414;2024-02-23T03:17:35;7.30;99.90
24814;DHT22;12904;50.088;11.414;2024-02-23T03:20:01;7.30;99.90
24814;DHT22;12904;50.088;11.414;2024-02-23T03:22:27;7.20;99.90
24814;DHT22;12904;50.088;11.414;2024-02-23T03:24:53;7.20;99.90
24814;DHT22;12904;50.088;11.414;2024-02-23T03:27:19;7.20;99.90
24814;DHT22;12904;50.088;11.414;2024-02-23T03:29:45;7.20;99.90
24814;DHT22;12904;50.088;11.414;2024-02-23T03:32:10;7.20;99.90
24814;DHT22;12904;50.088;11.414;2024-02-23T03:34:36;7.20;99.90
24814;DHT22;12904;50.088;11.414;2024-02-23T03:37:02;7.20;99.90
24814;DHT22;12904;50.088;11.414;2024-02-23T03:39:28;7.20;99.90
24814;DHT22;12904;50.088;11.414;2024-02-23T03:41:54;7.10;99.90
24814;DHT22;12904;50.088;11.414;2024-02-23T03:44:20;7.00;99.90
24814;DHT22;12904;50.088;11.414;2024-02-23T03:46:45;6.90;99.90
24814;DHT22;12904;50.088;11.414;2024-02-23T03:49:11;6.90;99.90
24814;DHT22;12904;50.088;11.414;2024-02-23T03:51:37;6.90;99.90
24814;DHT22;12904;50.088;11.414;2024-02-23T03:54:05;6.90;99.90
24814;DHT22;12904;50.088;11.414;2024-02-23T03:56:38;7.00;99.90
24814;DHT22;12904;50.088;11.414;2024-02-23T03:59:04;7.00;99.90
24814;DHT22;12904;50.088;11.414;2024-02-23T04:01:30;7.00;99.90
24814;DHT22;12904;50.088;11.414;2024-02-23T04:03:56;6.90;99.90
24814;DHT22;12904;50.088;11.414;2024-02-23T04:06:21;6.90;99.90
24814;DHT22;12904;50.088;11.414;2024-02-23T04:08:47;7.00;99.90
24814;DHT22;12904;50.088;11.414;2024-02-23T04:11:13;6.90;99.90
24814;DHT22;12904;50.088;11.414;2024-02-23T04:13:38;6.90;99.90
24814;DHT22;12904;50.088;11.414;2024-02-23T04:16:04;6.90;99.90
24814;DHT22;12904;50.088;11.414;2024-02-23T04:18:30;6.80;99.90
24814;DHT22;12904;50.088;11.414;2024-02-23T04:20:56;6.80;99.90
24814;DHT22;12904;50.088;11.414;2024-02-23T04:23:22;6.80;99.90
24814;DHT22;12904;50.088;11.414;2024-02-23T04:25:48;6.70;99.90
24814;DHT22;12904;50.088;11.414;2024-02-23T04:28:13;6.70;99.90
24814;DHT22;12904;50.088;11.414;2024-02-23T04:30:39;6.70;99.90
24814;DHT22;12904;50.088;11.414;2024-02-23T04:33:04;6.60;99.90
24814;DHT22;12904;50.088;11.414;2024-02-23T04:35:30;6.60;99.90
24814;DHT22;12904;50.088;11.414;2024-02-23T04:37:55;6.60;99.90
24814;DHT22;12904;50.088;11.414;2024-02-23T04:40:21;6.60;99.90
24814;DHT22;12904;50.088;11.414;2024-02-23T04:42:47;6.60;99.90
24814;DHT22;12904;50.088;11.414;2024-02-23T04:45:12;6.50;99.90
24814;DHT22;12904;50.088;11.414;2024-02-23T04:47:38;6.60;99.90
24814;DHT22;12904;50.088;11.414;2024-02-23T04:50:06;6.60;99.90
24814;DHT22;12904;50.088;11.414;2024-02-23T04:52:32;6.60;99.90
24814;DHT22;12904;50.088;11.414;2024-02-23T04:54:57;6.50;99.90
24814;DHT22;12904;50.088;11.414;2024-02-23T04:57:23;6.40;99.90
24814;DHT22;12904;50.088;11.414;2024-02-23T04:59:49;6.40;99.90
24814;DHT22;12904;50.088;11.414;2024-02-23T05:02:14;6.30;99.90
24814;DHT22;12904;50.088;11.414;2024-02-23T05:04:41;6.30;99.90
24814;DHT22;12904;50.088;11.414;2024-02-23T05:07:07;6.30;99.90
24814;DHT22;12904;50.088;11.414;2024-02-23T05:09:32;6.20;99.90
24814;DHT22;12904;50.088;11.414;2024-02-23T05:11:58;6.20;99.90
24814;DHT22;12904;50.088;11.414;2024-02-23T05:14:23;6.20;99.90
24814;DHT22;12904;50.088;11.414;2024-02-23T05:16:49;6.10;99.90
24814;DHT22;12904;50.088;11.414;2024-02-23T05:19:15;6.00;99.90
24814;DHT22;12904;50.088;11.414;2024-02-23T05:21:41;5.80;99.90
24814;DHT22;12904;50.088;11.414;2024-02-23T05:24:06;5.70;99.90
24814;DHT22;12904;50.088;11.414;2024-02-23T05:26:33;5.60;99.90
24814;DHT22;12904;50.088;11.414;2024-02-23T05:28:58;5.50;99.90
24814;DHT22;12904;50.088;11.414;2024-02-23T05:31:47;5.50;99.90
24814;DHT22;12904;50.088;11.414;2024-02-23T05:34:13;5.40;99.90
24814;DHT22;12904;50.088;11.414;2024-02-23T05:36:39;5.40;99.90
24814;DHT22;12904;50.088;11.414;2024-02-23T05:39:04;5.40;99.90
24814;DHT22;12904;50.088;11.414;2024-02-23T05:41:33;5.40;99.90
24814;DHT22;12904;50.088;11.414;2024-02-23T05:43:58;5.50;99.90
24814;DHT22;12904;50.088;11.414;2024-02-23T05:46:24;5.50;99.90
24814;DHT22;12904;50.088;11.414;2024-02-23T05:48:49;5.50;99.90
24814;DHT22;12904;50.088;11.414;2024-02-23T05:51:15;5.50;99.90
24814;DHT22;12904;50.088;11.414;2024-02-23T05:53:41;5.50;99.90
24814;DHT22;12904;50.088;11.414;2024-02-23T05:56:07;5.40;99.90
24814;DHT22;12904;50.088;11.414;2024-02-23T05:58:33;5.40;99.90
24814;DHT22;12904;50.088;11.414;2024-02-23T06:00:58;5.40;99.90
24814;DHT22;12904;50.088;11.414;2024-02-23T06:03:24;5.40;99.90
24814;DHT22;12904;50.088;11.414;2024-02-23T06:05:50;5.40;99.90
24814;DHT22;12904;50.088;11.414;2024-02-23T06:08:15;5.40;99.90
24814;DHT22;12904;50.088;11.414;2024-02-23T06:10:41;5.30;99.90
24814;DHT22;12904;50.088;11.414;2024-02-23T06:13:08;5.30;99.90
24814;DHT22;12904;50.088;11.414;2024-02-23T06:15:34;5.40;99.90
24814;DHT22;12904;50.088;11.414;2024-02-23T06:17:59;5.50;99.90
24814;DHT22;12904;50.088;11.414;2024-02-23T06:20:25;5.50;99.90
24814;DHT22;12904;50.088;11.414;2024-02-23T06:22:50;5.50;99.90
24814;DHT22;12904;50.088;11.414;2024-02-23T06:25:16;5.50;99.90
24814;DHT22;12904;50.088;11.414;2024-02-23T06:27:42;5.60;99.90
24814;DHT22;12904;50.088;11.414;2024-02-23T06:30:08;5.50;99.90
24814;DHT22;12904;50.088;11.414;2024-02-23T06:32:34;5.50;99.90
24814;DHT22;12904;50.088;11.414;2024-02-23T06:34:59;5.50;99.90
24814;DHT22;12904;50.088;11.414;2024-02-23T06:37:25;5.50;99.90
24814;DHT22;12904;50.088;11.414;2024-02-23T06:39:51;5.50;99.90
24814;DHT22;12904;50.088;11.414;2024-02-23T06:42:20;5.60;99.90
24814;DHT22;12904;50.088;11.414;2024-02-23T06:44:46;5.60;99.90
24814;DHT22;12904;50.088;11.414;2024-02-23T06:47:12;5.60;99.90
24814;DHT22;12904;50.088;11.414;2024-02-23T06:49:41;5.70;99.90
24814;DHT22;12904;50.088;11.414;2024-02-23T06:52:08;5.60;99.90
24814;DHT22;12904;50.088;11.414;2024-02-23T06:54:34;5.60;99.90
24814;DHT22;12904;50.088;11.414;2024-02-23T06:57:00;5.60;99.90
24814;DHT22;12904;50.088;11.414;2024-02-23T06:59:25;5.60;99.90
24814;DHT22;12904;50.088;11.414;2024-02-23T07:01:52;5.60;99.90
24814;DHT22;12904;50.088;11.414;2024-02-23T07:04:18;5.50;99.90
24814;DHT22;12904;50.088;11.414;2024-02-23T07:06:44;5.50;99.90
24814;DHT22;12904;50.088;11.414;2024-02-23T07:09:10;5.50;99.90
24814;DHT22;12904;50.088;11.414;2024-02-23T07:11:37;5.50;99.90
24814;DHT22;12904;50.088;11.414;2024-02-23T07:14:03;5.50;99.90
24814;DHT22;12904;50.088;11.414;2024-02-23T07:16:29;5.50;99.90
24814;DHT22;12904;50.088;11.414;2024-02-23T07:18:54;5.50;99.90
24814;DHT22;12904;50.088;11.414;2024-02-23T07:21:20;5.40;99.90
24814;DHT22;12904;50.088;11.414;2024-02-23T07:23:46;5.40;99.90
24814;DHT22;12904;50.088;11.414;2024-02-23T07:26:12;5.40;99.90
24814;DHT22;12904;50.088;11.414;2024-02-23T07:28:37;5.40;99.90
24814;DHT22;12904;50.088;11.414;2024-02-23T07:31:03;5.40;99.90
24814;DHT22;12904;50.088;11.414;2024-02-23T07:33:29;5.40;99.90
24814;DHT22;12904;50.088;11.414;2024-02-23T07:35:54;5.40;99.90
24814;DHT22;12904;50.088;11.414;2024-02-23T07:38:20;5.40;99.90
24814;DHT22;12904;50.088;11.414;2024-02-23T07:40:46;5.40;99.90
24814;DHT22;12904;50.088;11.414;2024-02-23T07:43:12;5.50;99.90
24814;DHT22;12904;50.088;11.414;2024-02-23T07:45:38;5.50;99.90
24814;DHT22;12904;50.088;11.414;2024-02-23T07:48:04;5.50;99.90
24814;DHT22;12904;50.088;11.414;2024-02-23T07:50:30;5.70;99.90
24814;DHT22;12904;50.088;11.414;2024-02-23T07:52:56;5.70;99.90
24814;DHT22;12904;50.088;11.414;2024-02-23T07:55:21;5.70;99.90
24814;DHT22;12904;50.088;11.414;2024-02-23T07:57:47;5.70;99.90
24814;DHT22;12904;50.088;11.414;2024-02-23T08:00:13;5.70;99.90
24814;DHT22;12904;50.088;11.414;2024-02-23T08:02:39;5.80;99.90
24814;DHT22;12904;50.088;11.414;2024-02-23T08:05:07;5.80;99.90
24814;DHT22;12904;50.088;11.414;2024-02-23T08:07:32;5.80;99.90
24814;DHT22;12904;50.088;11.414;2024-02-23T08:09:58;5.90;99.90
24814;DHT22;12904;50.088;11.414;2024-02-23T08:12:23;6.00;99.90
24814;DHT22;12904;50.088;11.414;2024-02-23T08:14:49;6.00;99.90
24814;DHT22;12904;50.088;11.414;2024-02-23T08:17:18;6.00;99.90
24814;DHT22;12904;50.088;11.414;2024-02-23T08:19:44;6.00;99.90
24814;DHT22;12904;50.088;11.414;2024-02-23T08:22:09;6.00;99.90
24814;DHT22;12904;50.088;11.414;2024-02-23T08:24:35;6.00;99.90
24814;DHT22;12904;50.088;11.414;2024-02-23T08:27:01;6.00;99.90
24814;DHT22;12904;50.088;11.414;2024-02-23T08:29:28;6.00;99.90
24814;DHT22;12904;50.088;11.414;2024-02-23T08:31:53;6.00;99.90
24814;DHT22;12904;50.088;11.414;2024-02-23T08:34:19;6.00;99.90
24814;DHT22;12904;50.088;11.414;2024-02-23T08:36:45;6.00;99.90
24814;DHT22;12904;50.088;11.414;2024-02-23T08:39:10;6.00;99.90
24814;DHT22;12904;50.088;11.414;2024-02-23T08:41:36;6.00;99.90
24814;DHT22;12904;50.088;11.414;2024-02-23T08:44:01;6.00;99.90
24814;DHT22;12904;50.088;11.414;2024-02-23T08:46:27;6.00;99.90
24814;DHT22;12904;50.088;11.414;2024-02-23T08:48:53;6.00;99.90
24814;DHT22;12904;50.088;11.414;2024-02-23T08:51:18;6.00;99.90
24814;DHT22;12904;50.088;11.414;2024-02-23T08:53:44;6.00;99.90
24814;DHT22;12904;50.088;11.414;2024-02-23T08:56:11;6.10;99.90
24814;DHT22;12904;50.088;11.414;2024-02-23T08:58:37;6.20;99.90
24814;DHT22;12904;50.088;11.414;2024-02-23T09:01:03;6.20;99.90
24814;DHT22;12904;50.088;11.414;2024-02-23T09:03:29;6.30;99.90
24814;DHT22;12904;50.088;11.414;2024-02-23T09:05:55;6.30;99.90
24814;DHT22;12904;50.088;11.414;2024-02-23T09:08:21;6.40;99.90
24814;DHT22;12904;50.088;11.414;2024-02-23T09:10:46;6.50;99.90
24814;DHT22;12904;50.088;11.414;2024-02-23T09:13:12;6.60;99.90
24814;DHT22;12904;50.088;11.414;2024-02-23T09:15:38;6.70;99.90
24814;DHT22;12904;50.088;11.414;2024-02-23T09:18:03;6.70;99.90
24814;DHT22;12904;50.088;11.414;2024-02-23T09:20:30;6.60;99.90
24814;DHT22;12904;50.088;11.414;2024-02-23T09:22:55;6.60;99.90
24814;DHT22;12904;50.088;11.414;2024-02-23T09:25:21;6.70;99.90
24814;DHT22;12904;50.088;11.414;2024-02-23T09:27:46;6.90;99.90
24814;DHT22;12904;50.088;11.414;2024-02-23T09:30:13;7.00;99.90
24814;DHT22;12904;50.088;11.414;2024-02-23T09:32:39;7.00;99.90
24814;DHT22;12904;50.088;11.414;2024-02-23T09:35:05;7.10;99.90
24814;DHT22;12904;50.088;11.414;2024-02-23T09:37:32;7.10;99.90
24814;DHT22;12904;50.088;11.414;2024-02-23T09:39:58;7.10;99.90
24814;DHT22;12904;50.088;11.414;2024-02-23T09:42:23;7.00;99.90
24814;DHT22;12904;50.088;11.414;2024-02-23T09:44:58;6.90;99.90
24814;DHT22;12904;50.088;11.414;2024-02-23T09:47:28;6.90;99.90
24814;DHT22;12904;50.088;11.414;2024-02-23T09:49:56;6.90;99.90
24814;DHT22;12904;50.088;11.414;2024-02-23T09:52:22;7.00;99.90
24814;DHT22;12904;50.088;11.414;2024-02-23T09:54:48;7.00;99.90
24814;DHT22;12904;50.088;11.414;2024-02-23T09:57:15;7.10;99.90
24814;DHT22;12904;50.088;11.414;2024-02-23T09:59:41;7.10;99.90
24814;DHT22;12904;50.088;11.414;2024-02-23T10:02:08;7.00;99.90
24814;DHT22;12904;50.088;11.414;2024-02-23T10:04:40;7.10;99.90
24814;DHT22;12904;50.088;11.414;2024-02-23T10:07:07;7.00;99.90
24814;DHT22;12904;50.088;11.414;2024-02-23T10:09:32;6.90;99.90
24814;DHT22;12904;50.088;11.414;2024-02-23T10:11:58;6.90;99.90
24814;DHT22;12904;50.088;11.414;2024-02-23T10:14:24;6.90;99.90
24814;DHT22;12904;50.088;11.414;2024-02-23T10:16:50;7.00;99.90
24814;DHT22;12904;50.088;11.414;2024-02-23T10:19:19;7.00;99.90
24814;DHT22;12904;50.088;11.414;2024-02-23T10:21:46;7.00;99.90
24814;DHT22;12904;50.088;11.414;2024-02-23T10:24:11;6.90;99.90
24814;DHT22;12904;50.088;11.414;2024-02-23T10:26:37;6.80;99.90
24814;DHT22;12904;50.088;11.414;2024-02-23T10:29:02;6.70;99.90
24814;DHT22;12904;50.088;11.414;2024-02-23T10:31:34;6.80;99.90
24814;DHT22;12904;50.088;11.414;2024-02-23T10:34:03;6.90;99.90
24814;DHT22;12904;50.088;11.414;2024-02-23T10:36:33;7.00;99.90
24814;DHT22;12904;50.088;11.414;2024-02-23T10:39:02;7.10;99.90
24814;DHT22;12904;50.088;11.414;2024-02-23T10:41:30;7.10;99.90
24814;DHT22;12904;50.088;11.414;2024-02-23T10:43:58;7.20;99.90
24814;DHT22;12904;50.088;11.414;2024-02-23T10:46:25;7.10;99.90
24814;DHT22;12904;50.088;11.414;2024-02-23T10:48:52;7.10;99.90
24814;DHT22;12904;50.088;11.414;2024-02-23T10:51:19;7.00;99.90
24814;DHT22;12904;50.088;11.414;2024-02-23T10:53:46;6.90;99.90
24814;DHT22;12904;50.088;11.414;2024-02-23T10:56:13;6.90;99.90
24814;DHT22;12904;50.088;11.414;2024-02-23T10:58:39;6.90;99.90
24814;DHT22;12904;50.088;11.414;2024-02-23T11:01:07;7.00;99.90
24814;DHT22;12904;50.088;11.414;2024-02-23T11:03:35;7.00;99.90
24814;DHT22;12904;50.088;11.414;2024-02-23T11:06:02;7.00;99.90
24814;DHT22;12904;50.088;11.414;2024-02-23T11:08:29;7.00;99.90
24814;DHT22;12904;50.088;11.414;2024-02-23T11:10:54;6.90;99.90
24814;DHT22;12904;50.088;11.414;2024-02-23T11:13:30;6.90;99.90
24814;DHT22;12904;50.088;11.414;2024-02-23T11:16:02;7.00;99.90
24814;DHT22;12904;50.088;11.414;2024-02-23T11:18:29;7.10;99.90
24814;DHT22;12904;50.088;11.414;2024-02-23T11:20:56;7.20;99.90
24814;DHT22;12904;50.088;11.414;2024-02-23T11:23:24;7.30;99.90
24814;DHT22;12904;50.088;11.414;2024-02-23T11:26:19;7.30;99.90
24814;DHT22;12904;50.088;11.414;2024-02-23T11:28:49;7.30;99.90
24814;DHT22;12904;50.088;11.414;2024-02-23T11:31:20;7.20;99.90
24814;DHT22;12904;50.088;11.414;2024-02-23T11:33:53;7.20;99.90
24814;DHT22;12904;50.088;11.414;2024-02-23T11:36:32;7.20;99.90
24814;DHT22;12904;50.088;11.414;2024-02-23T11:38:59;7.10;99.90
24814;DHT22;12904;50.088;11.414;2024-02-23T11:41:26;7.10;99.90
24814;DHT22;12904;50.088;11.414;2024-02-23T11:43:54;7.10;99.90
24814;DHT22;12904;50.088;11.414;2024-02-23T11:46:21;7.10;99.90
24814;DHT22;12904;50.088;11.414;2024-02-23T11:48:46;7.10;99.90
24814;DHT22;12904;50.088;11.414;2024-02-23T11:51:15;7.10;99.90
24814;DHT22;12904;50.088;11.414;2024-02-23T11:53:42;7.20;99.90
24814;DHT22;12904;50.088;11.414;2024-02-23T11:56:09;7.20;99.90
24814;DHT22;12904;50.088;11.414;2024-02-23T11:58:35;7.20;99.90
24814;DHT22;12904;50.088;11.414;2024-02-23T12:01:02;7.30;99.90
24814;DHT22;12904;50.088;11.414;2024-02-23T12:03:31;7.40;99.90
24814;DHT22;12904;50.088;11.414;2024-02-23T12:05:57;7.30;99.90
24814;DHT22;12904;50.088;11.414;2024-02-23T12:08:27;7.40;99.90
24814;DHT22;12904;50.088;11.414;2024-02-23T12:10:56;7.40;99.90
24814;DHT22;12904;50.088;11.414;2024-02-23T12:13:26;7.40;99.90
24814;DHT22;12904;50.088;11.414;2024-02-23T12:15:53;7.30;99.90
24814;DHT22;12904;50.088;11.414;2024-02-23T12:18:21;7.40;99.90
24814;DHT22;12904;50.088;11.414;2024-02-23T12:20:49;7.40;99.90
24814;DHT22;12904;50.088;11.414;2024-02-23T12:23:15;7.50;99.90
24814;DHT22;12904;50.088;11.414;2024-02-23T12:25:41;7.40;99.90
24814;DHT22;12904;50.088;11.414;2024-02-23T12:28:18;7.30;99.90
24814;DHT22;12904;50.088;11.414;2024-02-23T12:30:44;7.30;99.90
24814;DHT22;12904;50.088;11.414;2024-02-23T12:33:15;7.20;99.90
24814;DHT22;12904;50.088;11.414;2024-02-23T12:35:41;7.20;99.90
24814;DHT22;12904;50.088;11.414;2024-02-23T12:38:07;7.20;99.90
24814;DHT22;12904;50.088;11.414;2024-02-23T12:40:32;7.20;99.90
24814;DHT22;12904;50.088;11.414;2024-02-23T12:42:58;7.10;99.90
24814;DHT22;12904;50.088;11.414;2024-02-23T12:45:24;7.10;99.90
24814;DHT22;12904;50.088;11.414;2024-02-23T12:47:49;7.20;99.90
24814;DHT22;12904;50.088;11.414;2024-02-23T12:50:15;7.20;99.90
24814;DHT22;12904;50.088;11.414;2024-02-23T12:52:40;7.20;99.90
24814;DHT22;12904;50.088;11.414;2024-02-23T12:55:06;7.20;99.90
24814;DHT22;12904;50.088;11.414;2024-02-23T12:57:33;7.10;99.90
24814;DHT22;12904;50.088;11.414;2024-02-23T12:59:59;7.10;99.90
24814;DHT22;12904;50.088;11.414;2024-02-23T13:02:24;7.10;99.90
24814;DHT22;12904;50.088;11.414;2024-02-23T13:04:50;7.10;99.90
24814;DHT22;12904;50.088;11.414;2024-02-23T13:07:16;7.00;99.90
24814;DHT22;12904;50.088;11.414;2024-02-23T13:09:42;7.10;99.90
24814;DHT22;12904;50.088;11.414;2024-02-23T13:12:08;7.10;99.90
24814;DHT22;12904;50.088;11.414;2024-02-23T13:14:33;7.10;99.90
24814;DHT22;12904;50.088;11.414;2024-02-23T13:16:59;7.10;99.90
24814;DHT22;12904;50.088;11.414;2024-02-23T13:19:25;7.10;99.90
24814;DHT22;12904;50.088;11.414;2024-02-23T13:21:51;7.10;99.90
24814;DHT22;12904;50.088;11.414;2024-02-23T13:24:17;7.20;99.90
24814;DHT22;12904;50.088;11.414;2024-02-23T13:26:42;7.20;99.90
24814;DHT22;12904;50.088;11.414;2024-02-23T13:29:08;7.10;99.90
24814;DHT22;12904;50.088;11.414;2024-02-23T13:31:33;7.00;99.90
24814;DHT22;12904;50.088;11.414;2024-02-23T13:33:59;6.90;99.90
24814;DHT22;12904;50.088;11.414;2024-02-23T13:36:25;6.90;99.90
24814;DHT22;12904;50.088;11.414;2024-02-23T13:38:50;7.00;99.90
24814;DHT22;12904;50.088;11.414;2024-02-23T13:41:17;7.00;99.90
24814;DHT22;12904;50.088;11.414;2024-02-23T13:43:43;7.00;99.90
24814;DHT22;12904;50.088;11.414;2024-02-23T13:46:09;7.10;99.90
24814;DHT22;12904;50.088;11.414;2024-02-23T13:48:36;7.20;99.90
24814;DHT22;12904;50.088;11.414;2024-02-23T13:51:01;7.20;99.90
24814;DHT22;12904;50.088;11.414;2024-02-23T13:53:29;7.30;99.90
24814;DHT22;12904;50.088;11.414;2024-02-23T13:55:56;7.40;99.90
24814;DHT22;12904;50.088;11.414;2024-02-23T13:58:22;7.40;99.90
24814;DHT22;12904;50.088;11.414;2024-02-23T14:00:47;7.40;99.90
24814;DHT22;12904;50.088;11.414;2024-02-23T14:03:17;7.30;99.90
24814;DHT22;12904;50.088;11.414;2024-02-23T14:05:48;7.20;99.90
24814;DHT22;12904;50.088;11.414;2024-02-23T14:08:13;7.20;99.90
24814;DHT22;12904;50.088;11.414;2024-02-23T14:10:39;7.20;99.90
24814;DHT22;12904;50.088;11.414;2024-02-23T14:13:06;7.20;99.90
24814;DHT22;12904;50.088;11.414;2024-02-23T14:15:32;7.20;99.90
24814;DHT22;12904;50.088;11.414;2024-02-23T14:17:58;7.20;99.90
24814;DHT22;12904;50.088;11.414;2024-02-23T14:20:23;7.10;99.90
24814;DHT22;12904;50.088;11.414;2024-02-23T14:22:49;7.10;99.90
24814;DHT22;12904;50.088;11.414;2024-02-23T14:25:16;7.20;99.90
24814;DHT22;12904;50.088;11.414;2024-02-23T14:27:41;7.20;99.90
24814;DHT22;12904;50.088;11.414;2024-02-23T14:30:07;7.20;99.90
24814;DHT22;12904;50.088;11.414;2024-02-23T14:32:33;7.20;99.90
24814;DHT22;12904;50.088;11.414;2024-02-23T14:35:01;7.10;99.90
24814;DHT22;12904;50.088;11.414;2024-02-23T14:37:28;7.10;99.90
24814;DHT22;12904;50.088;11.414;2024-02-23T14:39:54;7.10;99.90
24814;DHT22;12904;50.088;11.414;2024-02-23T14:42:20;7.00;99.90
24814;DHT22;12904;50.088;11.414;2024-02-23T14:44:45;6.90;99.90
24814;DHT22;12904;50.088;11.414;2024-02-23T14:47:11;6.90;99.90
24814;DHT22;12904;50.088;11.414;2024-02-23T14:49:38;6.90;99.90
24814;DHT22;12904;50.088;11.414;2024-02-23T14:52:04;6.80;99.90
24814;DHT22;12904;50.088;11.414;2024-02-23T14:54:29;6.80;99.90
24814;DHT22;12904;50.088;11.414;2024-02-23T14:56:55;6.80;99.90
24814;DHT22;12904;50.088;11.414;2024-02-23T14:59:21;6.80;99.90
24814;DHT22;12904;50.088;11.414;2024-02-23T15:01:46;6.80;99.90
24814;DHT22;12904;50.088;11.414;2024-02-23T15:04:12;6.80;99.90
24814;DHT22;12904;50.088;11.414;2024-02-23T15:06:38;6.80;99.90
24814;DHT22;12904;50.088;11.414;2024-02-23T15:09:04;6.70;99.90
24814;DHT22;12904;50.088;11.414;2024-02-23T15:11:30;6.70;99.90
24814;DHT22;12904;50.088;11.414;2024-02-23T15:13:56;6.70;99.90
24814;DHT22;12904;50.088;11.414;2024-02-23T15:16:27;6.70;99.90
24814;DHT22;12904;50.088;11.414;2024-02-23T15:18:53;6.70;99.90
24814;DHT22;12904;50.088;11.414;2024-02-23T15:21:19;6.70;99.90
24814;DHT22;12904;50.088;11.414;2024-02-23T15:23:45;6.70;99.90
24814;DHT22;12904;50.088;11.414;2024-02-23T15:26:11;6.70;99.90